Time;durP1;ratioP1;P1;durP2;ratioP2;P2;SDS_P1;SDS_P2;PMS_P1;PMS_P2;Temp;Humidity;BMP_temperature;BMP_pressure;BME280_temperature;BME280_humidity;BME280_pressure;Samples;Min_cycle;Max_cycle;Signal;HPM_P1;HPM_P2
2021/08/30 02:02:36;;;;;;;28.33;17.73;;;17.50;99.90;;;;;;4876156;29;20562;-82
2021/08/30 02:05:05;;;;;;;24.27;17.63;;;17.50;99.90;;;;;;4909709;29;20507;-82
2021/08/30 02:07:32;;;;;;;23.10;17.40;;;17.40;99.90;;;;;;4964846;28;20899;-83
2021/08/30 02:10:00;;;;;;;27.83;17.93;;;17.40;99.90;;;;;;4995132;28;20469;-83
2021/08/30 02:12:27;;;;;;;20.97;18.70;;;17.40;99.90;;;;;;5001384;28;20483;-82
2021/08/30 02:14:54;;;;;;;25.17;17.97;;;17.40;99.90;;;;;;4996360;28;20518;-81
2021/08/30 02:17:29;;;;;;;22.93;18.03;;;17.40;99.90;;;;;;4997613;28;20466;-81
2021/08/30 02:20:02;;;;;;;23.67;17.00;;;17.40;99.90;;;;;;5002080;28;20473;-83
2021/08/30 02:22:34;;;;;;;23.93;15.90;;;17.40;99.90;;;;;;5004156;28;20467;-82
2021/08/30 02:25:04;;;;;;;20.30;15.80;;;17.50;99.90;;;;;;4998586;28;20899;-83
2021/08/30 02:27:40;;;;;;;21.77;16.93;;;17.50;99.90;;;;;;4998247;28;20475;-83
2021/08/30 02:30:11;;;;;;;21.17;17.90;;;17.50;99.90;;;;;;5004959;28;20470;-83
2021/08/30 02:32:39;;;;;;;23.10;17.47;;;17.50;99.90;;;;;;5002594;28;21036;-83
2021/08/30 02:35:09;;;;;;;27.43;18.83;;;17.50;99.90;;;;;;5008178;28;20464;-82
2021/08/30 02:37:39;;;;;;;23.20;17.30;;;17.50;99.90;;;;;;4999913;28;20560;-82
2021/08/30 02:40:08;;;;;;;24.43;17.50;;;17.50;99.90;;;;;;5000690;28;20472;-84
2021/08/30 02:42:36;;;;;;;25.10;18.80;;;17.50;99.90;;;;;;4997778;28;20465;-83
2021/08/30 02:45:04;;;;;;;23.23;18.10;;;17.50;99.90;;;;;;5004187;28;20947;-83
2021/08/30 02:47:32;;;;;;;25.00;17.10;;;17.50;99.90;;;;;;5005751;28;20465;-83
2021/08/30 02:50:01;;;;;;;22.23;17.10;;;17.50;99.90;;;;;;5003651;28;20501;-84
2021/08/30 02:52:30;;;;;;;23.40;17.50;;;17.50;99.90;;;;;;4995501;28;20469;-83
2021/08/30 02:54:59;;;;;;;21.20;17.07;;;17.40;99.90;;;;;;4999310;28;20568;-82
2021/08/30 02:57:26;;;;;;;23.23;17.93;;;17.40;99.90;;;;;;5005575;28;20492;-82
2021/08/30 02:59:53;;;;;;;27.00;17.63;;;17.40;99.90;;;;;;5001769;28;20460;-82
2021/08/30 03:02:22;;;;;;;24.13;17.17;;;17.40;99.90;;;;;;5005674;28;21053;-84
2021/08/30 03:04:49;;;;;;;22.70;17.63;;;17.40;99.90;;;;;;5003316;28;20500;-82
2021/08/30 03:07:18;;;;;;;29.87;17.80;;;17.40;99.90;;;;;;5002250;28;20941;-83
2021/08/30 03:09:45;;;;;;;26.37;18.37;;;17.40;99.90;;;;;;5002476;28;20477;-82
2021/08/30 03:12:16;;;;;;;25.07;18.43;;;17.40;99.90;;;;;;5001445;28;21020;-83
2021/08/30 03:14:46;;;;;;;23.23;17.20;;;17.40;99.90;;;;;;5003759;28;20475;-82
2021/08/30 03:17:16;;;;;;;24.73;18.03;;;17.40;99.90;;;;;;5006115;28;20459;-82
2021/08/30 03:19:45;;;;;;;24.13;18.70;;;17.40;99.90;;;;;;5000576;28;20468;-83
2021/08/30 03:22:13;;;;;;;27.60;19.10;;;17.40;99.90;;;;;;4998943;28;20494;-83
2021/08/30 03:24:41;;;;;;;21.67;16.70;;;17.40;99.90;;;;;;5004054;28;20870;-83
2021/08/30 03:27:09;;;;;;;22.50;17.77;;;17.30;99.90;;;;;;5006937;28;20464;-82
2021/08/30 03:29:39;;;;;;;21.40;17.13;;;17.30;99.90;;;;;;5002478;28;20872;-82
2021/08/30 03:32:09;;;;;;;23.30;18.13;;;17.30;99.90;;;;;;5005303;28;20468;-83
2021/08/30 03:34:37;;;;;;;19.93;16.40;;;17.30;99.90;;;;;;4996814;28;20531;-83
2021/08/30 03:37:06;;;;;;;27.10;17.37;;;17.30;99.90;;;;;;4997143;28;20468;-82
2021/08/30 03:39:33;;;;;;;24.40;17.20;;;17.30;99.90;;;;;;5000491;28;20468;-82
2021/08/30 03:42:02;;;;;;;19.13;16.97;;;17.30;99.90;;;;;;5001643;28;20465;-81
2021/08/30 03:44:30;;;;;;;20.63;16.63;;;17.30;99.90;;;;;;5005350;28;20499;-83
2021/08/30 03:46:59;;;;;;;28.90;16.80;;;17.30;99.90;;;;;;5000418;28;20475;-82
2021/08/30 03:49:28;;;;;;;23.90;17.30;;;17.30;99.90;;;;;;4999942;28;20469;-82
2021/08/30 03:51:57;;;;;;;17.87;14.57;;;17.20;99.90;;;;;;5002766;28;20968;-83
2021/08/30 03:54:25;;;;;;;27.40;17.47;;;17.30;99.90;;;;;;5006191;28;20468;-82
2021/08/30 03:56:55;;;;;;;22.40;15.27;;;17.30;99.90;;;;;;5002755;28;20472;-83
2021/08/30 03:59:22;;;;;;;24.37;18.87;;;17.30;99.90;;;;;;5000810;28;20465;-82
2021/08/30 04:01:52;;;;;;;24.03;16.23;;;17.30;99.90;;;;;;5003667;28;20476;-83
2021/08/30 04:04:24;;;;;;;23.00;17.13;;;17.30;99.90;;;;;;4992766;28;21042;-82
2021/08/30 04:06:53;;;;;;;19.80;14.87;;;17.30;99.90;;;;;;5002332;28;20543;-83
2021/08/30 04:09:21;;;;;;;23.80;15.90;;;17.30;99.90;;;;;;4999993;28;20470;-82
2021/08/30 04:11:48;;;;;;;20.50;15.20;;;17.40;99.90;;;;;;5001836;28;20468;-82
2021/08/30 04:14:16;;;;;;;18.53;14.63;;;17.40;99.90;;;;;;5002784;28;20464;-83
2021/08/30 04:16:46;;;;;;;19.03;15.13;;;17.30;99.90;;;;;;5003696;28;20473;-83
2021/08/30 04:19:13;;;;;;;18.60;15.17;;;17.30;99.90;;;;;;5001377;28;20480;-83
2021/08/30 04:21:41;;;;;;;21.40;16.60;;;17.40;99.90;;;;;;4997216;28;21017;-82
2021/08/30 04:24:09;;;;;;;19.73;15.17;;;17.30;99.90;;;;;;5006359;28;20483;-82
2021/08/30 04:26:36;;;;;;;25.70;15.00;;;17.30;99.90;;;;;;4997737;28;20970;-83
2021/08/30 04:29:03;;;;;;;20.53;14.97;;;17.40;99.90;;;;;;4997548;28;20482;-82
2021/08/30 04:31:31;;;;;;;29.13;18.03;;;17.30;99.90;;;;;;5004595;28;20470;-83
2021/08/30 04:33:58;;;;;;;23.60;16.63;;;17.30;99.90;;;;;;5004305;28;20565;-81
2021/08/30 04:36:25;;;;;;;18.70;15.43;;;17.30;99.90;;;;;;5004338;28;20480;-81
2021/08/30 04:38:53;;;;;;;22.43;15.67;;;17.30;99.90;;;;;;5004058;28;20465;-82
2021/08/30 04:41:20;;;;;;;20.23;15.50;;;17.30;99.90;;;;;;5002175;28;20491;-81
2021/08/30 04:43:48;;;;;;;21.40;16.07;;;17.30;99.90;;;;;;5005974;28;20529;-83
2021/08/30 04:46:15;;;;;;;25.57;15.47;;;17.30;99.90;;;;;;5002431;28;20470;-82
2021/08/30 04:48:42;;;;;;;19.27;17.17;;;17.30;99.90;;;;;;5003309;28;20570;-84
2021/08/30 04:51:09;;;;;;;22.20;16.27;;;17.30;99.90;;;;;;5000105;28;20881;-83
2021/08/30 04:53:36;;;;;;;22.93;17.00;;;17.40;99.90;;;;;;5001608;28;20859;-82
2021/08/30 04:56:05;;;;;;;22.87;16.57;;;17.30;99.90;;;;;;5001657;28;21034;-81
2021/08/30 04:58:31;;;;;;;22.30;15.47;;;17.30;99.90;;;;;;4994454;28;20475;-81
2021/08/30 05:00:58;;;;;;;26.73;18.63;;;17.30;99.90;;;;;;5002862;28;20556;-83
2021/08/30 05:03:26;;;;;;;23.07;16.17;;;17.40;99.90;;;;;;5003977;28;20484;-82
2021/08/30 05:05:53;;;;;;;24.27;17.73;;;17.30;99.90;;;;;;5001412;28;20490;-83
2021/08/30 05:08:21;;;;;;;27.93;18.60;;;17.30;99.90;;;;;;5000604;28;20553;-82
2021/08/30 05:10:48;;;;;;;25.87;16.30;;;17.30;99.90;;;;;;5000123;28;20522;-83
2021/08/30 05:13:16;;;;;;;22.63;17.10;;;17.30;99.90;;;;;;4997493;28;20523;-82
2021/08/30 05:15:43;;;;;;;24.80;17.50;;;17.30;99.90;;;;;;5001718;28;20493;-82
2021/08/30 05:18:10;;;;;;;21.97;16.20;;;17.40;99.90;;;;;;5002215;28;20965;-83
2021/08/30 05:20:37;;;;;;;20.40;16.80;;;17.40;99.90;;;;;;5001416;28;20507;-82
2021/08/30 05:23:04;;;;;;;37.00;17.40;;;17.40;99.90;;;;;;4997123;28;20478;-82
2021/08/30 05:25:31;;;;;;;28.73;17.80;;;17.40;99.90;;;;;;5002666;28;20510;-82
2021/08/30 05:27:58;;;;;;;22.07;18.17;;;17.30;99.90;;;;;;4999578;28;20478;-81
2021/08/30 05:30:26;;;;;;;22.00;17.00;;;17.30;99.90;;;;;;4994838;28;20534;-82
2021/08/30 05:32:53;;;;;;;22.90;16.77;;;17.30;99.90;;;;;;5001543;28;20555;-82
2021/08/30 05:35:20;;;;;;;20.73;16.40;;;17.40;99.90;;;;;;4994468;28;21017;-82
2021/08/30 05:37:47;;;;;;;23.07;17.57;;;17.40;99.90;;;;;;4994540;28;20488;-82
2021/08/30 05:40:15;;;;;;;30.47;17.20;;;17.40;99.90;;;;;;4995057;28;20927;-83
2021/08/30 05:42:41;;;;;;;20.70;16.87;;;17.40;99.90;;;;;;4995546;28;20475;-83
2021/08/30 05:45:09;;;;;;;21.57;17.20;;;17.40;99.90;;;;;;4989068;28;20528;-82
2021/08/30 05:47:37;;;;;;;23.87;17.33;;;17.40;99.90;;;;;;5000790;28;20463;-85
2021/08/30 05:50:06;;;;;;;26.83;18.37;;;17.40;99.90;;;;;;4997958;28;21011;-83
2021/08/30 05:52:32;;;;;;;25.10;17.43;;;17.40;99.90;;;;;;4994502;28;20956;-81
2021/08/30 05:54:59;;;;;;;24.80;18.60;;;17.40;99.90;;;;;;4997705;28;20803;-83
2021/08/30 05:57:26;;;;;;;21.57;17.90;;;17.40;99.90;;;;;;4997484;28;20477;-83
2021/08/30 05:59:53;;;;;;;25.77;18.10;;;17.50;99.90;;;;;;4996071;28;20548;-82
2021/08/30 06:02:20;;;;;;;25.17;17.33;;;17.50;99.90;;;;;;4991294;28;20518;-83
2021/08/30 06:04:48;;;;;;;23.70;18.20;;;17.50;99.90;;;;;;4998420;28;20576;-83
2021/08/30 06:07:15;;;;;;;23.27;17.93;;;17.50;99.90;;;;;;4994619;28;20620;-82
2021/08/30 06:09:42;;;;;;;25.10;17.40;;;17.50;99.90;;;;;;5000247;28;20461;-82
2021/08/30 06:12:09;;;;;;;22.87;18.20;;;17.50;99.90;;;;;;5001450;28;20547;-82
2021/08/30 06:14:36;;;;;;;23.33;15.67;;;17.50;99.90;;;;;;5003197;28;20489;-81
2021/08/30 06:17:04;;;;;;;23.90;17.43;;;17.50;99.90;;;;;;4995285;28;20891;-83
2021/08/30 06:19:31;;;;;;;27.00;17.00;;;17.50;99.90;;;;;;5000362;28;20476;-81
2021/08/30 06:21:59;;;;;;;22.43;18.43;;;17.60;99.90;;;;;;5001508;28;20548;-83
2021/08/30 06:24:26;;;;;;;28.17;21.50;;;17.60;99.90;;;;;;4997462;28;20470;-83
2021/08/30 06:26:53;;;;;;;32.60;23.13;;;17.60;99.90;;;;;;4998176;28;20465;-83
2021/08/30 06:29:20;;;;;;;49.30;37.73;;;17.60;99.90;;;;;;5000811;28;20471;-82
2021/08/30 06:31:47;;;;;;;24.10;18.37;;;17.60;99.90;;;;;;4997953;28;21559;-83
2021/08/30 06:34:14;;;;;;;23.23;16.60;;;17.60;99.90;;;;;;5002889;28;20464;-82
2021/08/30 06:36:41;;;;;;;23.90;17.03;;;17.60;99.90;;;;;;4999845;28;21036;-83
2021/08/30 06:39:10;;;;;;;24.00;18.07;;;17.60;99.90;;;;;;4994347;28;20565;-82
2021/08/30 06:41:36;;;;;;;23.90;17.93;;;17.60;99.90;;;;;;4995385;28;20472;-82
2021/08/30 06:44:03;;;;;;;21.70;17.50;;;17.70;99.90;;;;;;4998404;28;20484;-83
2021/08/30 06:46:30;;;;;;;25.40;16.43;;;17.70;99.90;;;;;;4996124;28;20507;-81
2021/08/30 06:48:57;;;;;;;22.80;18.23;;;17.70;99.90;;;;;;4993750;28;20480;-83
2021/08/30 06:51:24;;;;;;;24.33;16.43;;;17.70;99.90;;;;;;4988994;28;20819;-83
2021/08/30 06:53:51;;;;;;;26.43;18.50;;;17.80;99.90;;;;;;4994524;28;20467;-83
2021/08/30 06:56:19;;;;;;;24.50;18.40;;;17.80;99.90;;;;;;4989971;28;20468;-83
2021/08/30 06:58:46;;;;;;;27.63;17.10;;;17.80;99.90;;;;;;4991303;28;20931;-84
2021/08/30 07:01:13;;;;;;;25.43;17.17;;;17.90;99.90;;;;;;4992202;28;20459;-83
2021/08/30 07:03:40;;;;;;;26.50;19.07;;;17.90;99.90;;;;;;4988422;28;21037;-84
2021/08/30 07:06:07;;;;;;;21.47;17.10;;;18.00;99.90;;;;;;4990250;28;20503;-84
2021/08/30 07:08:34;;;;;;;22.43;17.10;;;18.00;99.90;;;;;;4997955;28;20474;-83
2021/08/30 07:11:01;;;;;;;22.80;16.50;;;18.00;99.90;;;;;;4994358;28;21157;-84
2021/08/30 07:13:30;;;;;;;22.50;17.37;;;18.00;99.90;;;;;;4996717;28;20478;-81
2021/08/30 07:15:57;;;;;;;29.07;18.20;;;18.00;99.90;;;;;;4999492;28;20496;-85
2021/08/30 07:18:23;;;;;;;24.57;17.30;;;18.00;99.90;;;;;;4994743;28;20504;-85
2021/08/30 07:20:51;;;;;;;24.20;17.70;;;18.00;99.90;;;;;;4997755;28;20480;-84
2021/08/30 07:23:18;;;;;;;31.30;17.70;;;18.00;99.90;;;;;;4999944;28;20471;-82
2021/08/30 07:25:46;;;;;;;26.93;17.87;;;18.00;99.90;;;;;;4994259;28;20487;-82
2021/08/30 07:28:13;;;;;;;25.60;17.47;;;18.00;99.90;;;;;;4994356;28;20480;-83
2021/08/30 07:30:41;;;;;;;21.83;17.30;;;18.00;99.90;;;;;;4992865;28;20475;-83
2021/08/30 07:33:07;;;;;;;24.63;16.80;;;18.00;99.90;;;;;;5003191;28;21405;-83
2021/08/30 07:35:34;;;;;;;23.30;17.30;;;18.10;99.90;;;;;;4999746;28;20469;-84
2021/08/30 07:38:01;;;;;;;28.30;17.73;;;18.10;99.90;;;;;;4994096;28;20462;-85
2021/08/30 07:40:28;;;;;;;27.87;19.00;;;18.10;99.90;;;;;;4998499;28;20503;-82
2021/08/30 07:42:55;;;;;;;25.03;18.77;;;18.10;99.90;;;;;;4994562;28;20848;-83
2021/08/30 07:45:22;;;;;;;21.87;16.43;;;18.10;99.90;;;;;;4993833;28;20497;-83
2021/08/30 07:47:50;;;;;;;23.07;18.10;;;18.10;99.90;;;;;;4996403;28;20991;-85
2021/08/30 07:50:19;;;;;;;21.03;17.20;;;18.00;99.90;;;;;;5002464;28;20520;-84
2021/08/30 07:52:46;;;;;;;22.50;17.50;;;18.00;99.90;;;;;;4996623;28;20573;-84
2021/08/30 07:55:13;;;;;;;51.67;33.23;;;18.00;99.90;;;;;;5000725;28;20856;-83
2021/08/30 07:57:42;;;;;;;39.83;27.40;;;18.00;99.90;;;;;;5000456;28;20477;-83
2021/08/30 08:00:10;;;;;;;24.23;19.30;;;18.00;99.90;;;;;;4991426;28;20464;-85
2021/08/30 08:02:37;;;;;;;24.70;17.27;;;18.00;99.90;;;;;;4993781;28;20567;-84
2021/08/30 08:05:06;;;;;;;27.73;18.47;;;18.00;99.90;;;;;;4991474;28;20490;-85
2021/08/30 08:07:34;;;;;;;24.80;18.10;;;18.00;99.90;;;;;;4996827;28;20978;-82
2021/08/30 08:10:01;;;;;;;27.70;18.53;;;18.00;99.90;;;;;;4987828;28;20476;-82
2021/08/30 08:12:28;;;;;;;22.53;17.40;;;18.00;99.90;;;;;;4991015;28;20476;-84
2021/08/30 08:14:54;;;;;;;25.30;18.83;;;18.10;99.90;;;;;;4996478;28;20501;-83
2021/08/30 08:17:21;;;;;;;28.90;18.63;;;18.10;99.90;;;;;;4989292;28;20476;-84
2021/08/30 08:19:48;;;;;;;26.20;18.53;;;18.10;99.90;;;;;;4992969;28;20834;-84
2021/08/30 08:22:16;;;;;;;26.30;19.50;;;18.10;99.90;;;;;;4989478;28;20472;-82
2021/08/30 08:24:43;;;;;;;24.17;17.50;;;18.20;99.90;;;;;;4990112;28;20472;-85
2021/08/30 08:27:10;;;;;;;25.73;18.83;;;18.20;99.90;;;;;;4990851;28;20488;-85
2021/08/30 08:29:37;;;;;;;26.83;18.10;;;18.10;99.90;;;;;;4993636;28;20468;-84
2021/08/30 08:32:05;;;;;;;22.23;18.13;;;18.20;99.90;;;;;;5000183;28;20535;-82
2021/08/30 08:34:32;;;;;;;26.77;17.93;;;18.20;99.90;;;;;;4993910;28;20960;-83
2021/08/30 08:37:02;;;;;;;20.87;18.20;;;18.20;99.90;;;;;;4990112;28;20458;-83
2021/08/30 08:39:30;;;;;;;23.60;18.07;;;18.20;99.90;;;;;;4994664;28;20491;-83
2021/08/30 08:41:57;;;;;;;24.57;18.10;;;18.20;99.90;;;;;;4999414;28;21026;-84
2021/08/30 08:44:24;;;;;;;26.90;19.17;;;18.30;99.90;;;;;;4997402;28;20465;-83
2021/08/30 08:46:52;;;;;;;23.47;17.50;;;18.30;99.90;;;;;;4992468;28;21036;-85
2021/08/30 08:49:20;;;;;;;27.97;18.53;;;18.30;99.90;;;;;;4994691;28;20477;-83
2021/08/30 08:51:47;;;;;;;23.87;19.10;;;18.40;99.90;;;;;;4992041;28;20458;-83
2021/08/30 08:54:14;;;;;;;29.60;20.50;;;18.40;99.90;;;;;;4996740;28;20494;-83
2021/08/30 08:56:42;;;;;;;26.83;18.40;;;18.50;99.90;;;;;;5000054;28;20497;-83
2021/08/30 08:59:09;;;;;;;25.77;19.50;;;18.50;99.90;;;;;;4996458;28;20569;-84
2021/08/30 09:01:37;;;;;;;24.90;18.97;;;18.50;99.90;;;;;;5001093;28;20465;-83
2021/08/30 09:04:05;;;;;;;22.17;17.80;;;18.50;99.90;;;;;;4984904;28;21242;-83
2021/08/30 09:06:38;;;;;;;50.37;30.00;;;18.50;99.90;;;;;;4994369;28;20493;-82
2021/08/30 09:09:08;;;;;;;51.83;35.50;;;18.40;99.90;;;;;;5000136;28;20474;-83
2021/08/30 09:11:37;;;;;;;45.10;34.10;;;18.40;99.90;;;;;;4996248;28;20475;-84
2021/08/30 09:14:14;;;;;;;26.10;16.20;;;18.40;99.90;;;;;;4998719;28;20531;-82
2021/08/30 09:16:42;;;;;;;19.93;17.83;;;18.50;99.90;;;;;;4995307;28;20469;-84
2021/08/30 09:19:11;;;;;;;23.60;17.80;;;18.50;99.90;;;;;;4995518;28;20570;-83
2021/08/30 09:21:43;;;;;;;22.73;17.43;;;18.40;99.90;;;;;;4994399;28;20478;-85
2021/08/30 09:24:11;;;;;;;21.43;16.83;;;18.40;99.90;;;;;;4999333;28;20477;-83
2021/08/30 09:26:44;;;;;;;25.63;17.03;;;18.40;99.90;;;;;;4997187;28;20488;-83
2021/08/30 09:29:17;;;;;;;22.67;17.03;;;18.40;99.90;;;;;;4998198;28;20954;-83
2021/08/30 09:31:55;;;;;;;22.47;18.57;;;18.50;99.90;;;;;;5001893;28;20980;-84
2021/08/30 09:34:24;;;;;;;20.77;18.17;;;18.50;99.90;;;;;;4996817;28;20483;-84
2021/08/30 09:36:52;;;;;;;26.40;18.40;;;18.60;99.90;;;;;;4990422;28;20844;-85
2021/08/30 09:39:20;;;;;;;22.00;16.60;;;18.60;99.90;;;;;;4991365;28;20470;-82
2021/08/30 09:41:47;;;;;;;26.60;17.90;;;18.60;99.90;;;;;;4998545;28;20967;-84
2021/08/30 09:44:14;;;;;;;24.47;17.70;;;18.70;99.90;;;;;;4997856;28;20471;-84
2021/08/30 09:46:43;;;;;;;22.07;15.27;;;18.70;99.90;;;;;;4994247;28;20497;-83
2021/08/30 09:49:10;;;;;;;20.60;16.40;;;18.70;99.90;;;;;;4998629;28;20933;-85
2021/08/30 09:51:38;;;;;;;22.27;17.80;;;18.80;99.90;;;;;;4994755;28;20564;-83
2021/08/30 09:54:05;;;;;;;21.03;17.13;;;18.80;99.90;;;;;;4993525;28;21035;-83
2021/08/30 09:56:37;;;;;;;20.90;16.53;;;18.90;99.90;;;;;;4992136;28;20473;-82
2021/08/30 09:59:04;;;;;;;20.90;16.33;;;;;;;;;;4997141;28;20457;-83
2021/08/30 10:01:33;;;;;;;21.40;16.10;;;19.00;99.90;;;;;;4991641;28;20564;-84
2021/08/30 10:04:01;;;;;;;21.23;17.27;;;19.10;99.90;;;;;;4991105;28;20470;-83
2021/08/30 10:06:28;;;;;;;22.07;17.40;;;19.10;99.90;;;;;;4989701;28;20497;-82
2021/08/30 10:08:56;;;;;;;26.27;15.97;;;19.20;99.90;;;;;;4994639;28;20472;-83
2021/08/30 10:11:23;;;;;;;20.07;16.57;;;19.20;99.90;;;;;;4995009;28;20479;-84
2021/08/30 10:13:50;;;;;;;20.30;17.10;;;19.20;99.90;;;;;;4990908;28;20470;-84
2021/08/30 10:16:20;;;;;;;18.83;16.20;;;19.20;99.90;;;;;;4996933;28;20493;-84
2021/08/30 10:18:52;;;;;;;26.33;16.20;;;19.30;99.90;;;;;;4994159;28;20930;-83
2021/08/30 10:21:21;;;;;;;19.83;15.87;;;19.30;99.90;;;;;;4994862;28;20504;-83
2021/08/30 10:23:49;;;;;;;17.50;14.43;;;19.30;99.90;;;;;;4995006;28;20560;-84
2021/08/30 10:26:16;;;;;;;20.70;16.57;;;19.30;99.90;;;;;;4997435;28;20715;-83
2021/08/30 10:28:46;;;;;;;17.53;15.37;;;19.30;99.90;;;;;;5003863;28;20535;-84
2021/08/30 10:31:20;;;;;;;17.33;15.27;;;19.40;99.90;;;;;;4997282;28;20810;-84
2021/08/30 10:33:50;;;;;;;23.37;13.67;;;19.40;99.90;;;;;;4995346;28;20960;-82
2021/08/30 10:36:19;;;;;;;21.30;15.50;;;19.40;99.90;;;;;;4990428;28;20468;-84
2021/08/30 10:39:03;;;;;;;18.07;15.57;;;19.40;99.90;;;;;;4998663;28;20472;-82
2021/08/30 10:41:34;;;;;;;20.20;15.77;;;19.40;99.90;;;;;;4997831;28;20533;-84
2021/08/30 10:44:11;;;;;;;17.43;14.60;;;19.40;99.90;;;;;;4998237;28;20474;-83
2021/08/30 10:46:42;;;;;;;23.30;16.63;;;19.40;99.90;;;;;;4999381;28;20532;-85
2021/08/30 10:49:12;;;;;;;37.47;26.97;;;19.40;99.90;;;;;;4993162;28;20851;-83
2021/08/30 10:51:40;;;;;;;20.63;16.67;;;19.50;99.90;;;;;;5000708;28;20468;-83
2021/08/30 10:54:11;;;;;;;19.20;15.80;;;19.50;99.90;;;;;;5002022;28;20501;-83
2021/08/30 10:56:38;;;;;;;17.57;13.97;;;19.50;99.90;;;;;;4999137;28;20462;-85
2021/08/30 10:59:08;;;;;;;17.57;15.23;;;19.60;99.90;;;;;;5003144;28;20470;-82
2021/08/30 11:01:36;;;;;;;21.67;14.43;;;19.60;99.90;;;;;;5002057;28;20466;-85
2021/08/30 11:04:03;;;;;;;15.13;12.93;;;19.70;99.90;;;;;;4992241;28;20557;-82
2021/08/30 11:06:30;;;;;;;17.43;14.20;;;19.70;99.90;;;;;;4994637;28;20532;-84
2021/08/30 11:08:57;;;;;;;15.00;13.17;;;19.80;99.90;;;;;;4990507;28;20569;-83
2021/08/30 11:11:27;;;;;;;16.80;13.80;;;19.80;99.90;;;;;;5002327;28;20479;-85
2021/08/30 11:14:00;;;;;;;17.03;14.70;;;19.90;99.90;;;;;;5000192;28;20465;-83
2021/08/30 11:16:28;;;;;;;21.77;15.43;;;19.90;99.90;;;;;;5000671;28;21064;-85
2021/08/30 11:18:58;;;;;;;20.10;14.60;;;20.00;99.90;;;;;;4999877;28;20457;-82
2021/08/30 11:21:39;;;;;;;18.27;15.57;;;20.00;99.90;;;;;;4999530;28;20474;-82
2021/08/30 11:24:08;;;;;;;17.10;12.97;;;20.00;99.90;;;;;;4997563;28;20495;-83
2021/08/30 11:26:38;;;;;;;19.30;15.37;;;20.00;99.90;;;;;;4997495;28;20872;-85
2021/08/30 11:29:09;;;;;;;16.00;13.23;;;20.00;99.90;;;;;;4997578;28;20459;-84
2021/08/30 11:31:40;;;;;;;19.57;12.83;;;20.00;99.90;;;;;;5002095;28;20500;-82
2021/08/30 11:34:08;;;;;;;14.27;12.77;;;20.00;99.90;;;;;;4992525;28;20463;-84
2021/08/30 11:36:46;;;;;;;13.87;12.33;;;20.00;99.90;;;;;;4999814;28;20491;-85
2021/08/30 11:39:15;;;;;;;16.17;13.10;;;19.90;99.90;;;;;;4998115;28;20457;-83
2021/08/30 11:41:45;;;;;;;18.33;12.67;;;19.90;99.90;;;;;;4999426;28;20972;-83
2021/08/30 11:44:13;;;;;;;17.50;12.20;;;19.80;99.90;;;;;;4998677;28;20483;-85
2021/08/30 11:46:45;;;;;;;12.37;11.17;;;19.80;99.90;;;;;;4994786;28;20629;-85
2021/08/30 11:49:12;;;;;;;14.33;12.60;;;19.80;99.90;;;;;;4992811;28;20467;-83
2021/08/30 11:51:41;;;;;;;15.40;12.90;;;19.70;99.90;;;;;;4997690;28;20493;-83
2021/08/30 11:54:15;;;;;;;14.57;13.07;;;19.70;99.90;;;;;;4997391;28;20466;-81
2021/08/30 11:56:51;;;;;;;16.70;11.83;;;19.70;99.90;;;;;;4997351;28;20500;-83
2021/08/30 11:59:25;;;;;;;14.20;12.40;;;19.70;99.90;;;;;;4999386;28;20458;-84
2021/08/30 12:01:52;;;;;;;19.17;11.60;;;19.60;99.90;;;;;;4995069;28;20587;-82
2021/08/30 12:04:19;;;;;;;16.53;12.40;;;19.60;99.90;;;;;;4990406;28;20468;-83
2021/08/30 12:06:52;;;;;;;15.60;13.80;;;19.60;99.90;;;;;;4999119;28;20535;-85
2021/08/30 12:09:19;;;;;;;15.33;12.63;;;19.50;99.90;;;;;;4995570;28;20521;-82
2021/08/30 12:11:50;;;;;;;15.93;12.97;;;19.50;99.90;;;;;;5001588;28;20506;-82
2021/08/30 12:14:17;;;;;;;18.40;13.43;;;19.50;99.90;;;;;;4997688;28;20464;-82
2021/08/30 12:16:46;;;;;;;18.33;13.30;;;19.50;99.90;;;;;;4996717;28;20473;-82
2021/08/30 12:19:13;;;;;;;17.23;13.93;;;19.50;99.90;;;;;;4995142;28;20468;-83
2021/08/30 12:21:41;;;;;;;17.67;13.60;;;19.40;99.90;;;;;;4996507;28;20469;-84
2021/08/30 12:24:09;;;;;;;17.00;13.37;;;19.40;99.90;;;;;;4997314;28;20474;-84
2021/08/30 12:26:36;;;;;;;15.37;12.40;;;19.40;99.90;;;;;;4995647;28;20848;-85
2021/08/30 12:29:05;;;;;;;18.50;13.93;;;19.50;99.90;;;;;;4998330;28;20993;-82
2021/08/30 12:31:34;;;;;;;16.47;14.67;;;19.50;99.90;;;;;;4996916;28;20881;-82
2021/08/30 12:34:02;;;;;;;16.23;13.77;;;19.50;99.90;;;;;;5001151;28;20466;-83
2021/08/30 12:36:30;;;;;;;16.40;14.50;;;19.60;99.90;;;;;;4995680;28;20973;-82
2021/08/30 12:38:57;;;;;;;19.93;15.43;;;19.60;99.90;;;;;;4994513;28;20834;-82
2021/08/30 12:41:24;;;;;;;17.00;15.03;;;19.70;99.90;;;;;;4996717;28;20466;-82
2021/08/30 12:43:51;;;;;;;17.53;14.40;;;19.70;99.90;;;;;;4995408;28;20475;-82
2021/08/30 12:46:19;;;;;;;17.27;13.60;;;19.80;99.90;;;;;;4996168;28;20473;-83
2021/08/30 12:48:46;;;;;;;21.63;14.67;;;19.90;99.90;;;;;;4992533;28;20876;-84
2021/08/30 12:51:13;;;;;;;17.70;12.03;;;19.90;99.90;;;;;;5001049;28;20457;-83
2021/08/30 12:53:41;;;;;;;16.87;14.60;;;20.00;99.90;;;;;;4993517;28;20469;-82
2021/08/30 12:56:08;;;;;;;15.40;13.53;;;20.10;99.90;;;;;;4996213;28;20477;-82
2021/08/30 12:58:35;;;;;;;16.70;12.43;;;20.20;99.90;;;;;;4995542;28;21006;-82
2021/08/30 13:01:03;;;;;;;17.80;13.90;;;20.20;99.90;;;;;;4990221;28;20561;-83
2021/08/30 13:03:31;;;;;;;16.13;12.10;;;20.20;99.90;;;;;;4993115;28;20489;-83
2021/08/30 13:05:58;;;;;;;14.50;12.33;;;20.20;99.90;;;;;;4998654;28;20470;-83
2021/08/30 13:08:25;;;;;;;16.90;13.07;;;20.20;99.90;;;;;;4997940;28;21035;-84
2021/08/30 13:10:52;;;;;;;14.13;12.63;;;20.30;99.90;;;;;;4993571;28;20466;-86
2021/08/30 13:13:19;;;;;;;26.93;20.40;;;20.30;99.90;;;;;;4987153;28;20888;-84
2021/08/30 13:15:49;;;;;;;33.97;27.40;;;20.40;99.90;;;;;;4996409;28;20490;-85
2021/08/30 13:18:17;;;;;;;17.10;14.07;;;20.50;99.90;;;;;;5000802;28;20544;-85
2021/08/30 13:20:49;;;;;;;12.87;11.20;;;20.60;99.90;;;;;;5001113;28;20465;-83
2021/08/30 13:23:18;;;;;;;14.93;10.70;;;20.60;99.90;;;;;;4994471;28;20461;-83
2021/08/30 13:25:44;;;;;;;11.60;9.80;;;20.70;99.90;;;;;;4997075;28;20561;-85
2021/08/30 13:28:12;;;;;;;10.33;8.10;;;20.70;99.90;;;;;;4996030;28;20501;-84
2021/08/30 13:30:40;;;;;;;9.47;8.47;;;20.80;99.90;;;;;;4997154;28;20487;-84
2021/08/30 13:33:07;;;;;;;8.43;7.63;;;20.80;99.90;;;;;;5002780;28;20475;-85
2021/08/30 13:35:34;;;;;;;11.63;9.20;;;20.80;99.90;;;;;;4997634;28;20635;-85
2021/08/30 13:38:03;;;;;;;10.83;8.27;;;20.80;99.90;;;;;;4995658;28;20472;-83
2021/08/30 13:40:30;;;;;;;10.77;8.20;;;20.80;99.90;;;;;;4995389;28;20540;-86
2021/08/30 13:42:57;;;;;;;14.23;10.67;;;20.90;99.90;;;;;;4996381;28;20474;-84
2021/08/30 13:45:25;;;;;;;12.47;11.17;;;20.90;99.90;;;;;;4995019;28;20471;-84
2021/08/30 13:47:55;;;;;;;13.60;10.80;;;21.00;99.90;;;;;;4998962;28;20931;-83
2021/08/30 13:50:22;;;;;;;17.50;10.70;;;21.10;99.90;;;;;;4998354;28;20568;-85
2021/08/30 13:52:49;;;;;;;10.87;9.50;;;21.10;99.90;;;;;;4995495;28;20469;-86
2021/08/30 13:55:17;;;;;;;38.03;17.30;;;21.10;99.90;;;;;;4996102;28;20498;-84
2021/08/30 13:57:44;;;;;;;19.07;10.50;;;21.10;99.90;;;;;;4999296;28;20805;-84
2021/08/30 14:00:12;;;;;;;12.20;10.20;;;21.10;99.90;;;;;;4999513;28;20863;-84
2021/08/30 14:02:40;;;;;;;13.50;9.50;;;21.00;99.90;;;;;;4997705;28;20501;-85
2021/08/30 14:05:08;;;;;;;11.27;10.10;;;21.00;99.90;;;;;;4996308;28;20482;-85
2021/08/30 14:07:35;;;;;;;11.97;10.03;;;20.90;99.90;;;;;;4992926;28;21241;-84
2021/08/30 14:10:02;;;;;;;10.60;9.17;;;20.90;99.90;;;;;;4997470;28;20462;-84
2021/08/30 14:12:31;;;;;;;10.67;9.57;;;20.80;99.90;;;;;;4995754;28;20457;-85
2021/08/30 14:14:58;;;;;;;11.30;9.80;;;20.70;99.90;;;;;;4998880;28;20883;-83
2021/08/30 14:17:25;;;;;;;11.60;9.93;;;20.70;99.90;;;;;;4997188;28;20471;-86
2021/08/30 14:19:52;;;;;;;9.90;8.90;;;20.70;99.90;;;;;;4993214;28;20477;-85
2021/08/30 14:22:19;;;;;;;9.70;8.70;;;20.60;99.90;;;;;;4992846;28;20503;-85
2021/08/30 14:24:47;;;;;;;10.17;9.00;;;20.60;99.90;;;;;;4998630;28;20555;-84
2021/08/30 14:27:17;;;;;;;10.53;9.50;;;20.60;99.90;;;;;;5006287;28;20488;-84
2021/08/30 14:29:46;;;;;;;11.27;10.10;;;20.60;99.90;;;;;;5000722;28;20463;-85
2021/08/30 14:32:13;;;;;;;12.43;9.40;;;20.60;99.90;;;;;;4997813;28;21053;-85
2021/08/30 14:34:40;;;;;;;11.27;9.80;;;20.60;99.90;;;;;;4997997;28;20462;-84